sensor_id;sensor_type;location;lat;lon;timestamp;P1;durP1;ratioP1;P2;durP2;ratioP2
9292;SDS011;69930;48.232;12.384;2024-02-26T00:00:53;28.08;;;24.17;;
9292;SDS011;69930;48.232;12.384;2024-02-26T00:03:20;30.42;;;26.33;;
9292;SDS011;69930;48.232;12.384;2024-02-26T00:05:48;27.70;;;24.10;;
9292;SDS011;69930;48.232;12.384;2024-02-26T00:08:15;33.50;;;27.45;;
9292;SDS011;69930;48.232;12.384;2024-02-26T00:10:43;40.38;;;32.10;;
9292;SDS011;69930;48.232;12.384;2024-02-26T00:13:10;26.52;;;23.63;;
9292;SDS011;69930;48.232;12.384;2024-02-26T00:15:37;46.03;;;33.58;;
9292;SDS011;69930;48.232;12.384;2024-02-26T00:18:04;43.20;;;32.70;;
9292;SDS011;69930;48.232;12.384;2024-02-26T00:20:32;40.30;;;29.40;;
9292;SDS011;69930;48.232;12.384;2024-02-26T00:23:00;26.90;;;23.42;;
9292;SDS011;69930;48.232;12.384;2024-02-26T00:25:27;37.25;;;29.55;;
9292;SDS011;69930;48.232;12.384;2024-02-26T00:27:54;41.67;;;31.20;;
9292;SDS011;69930;48.232;12.384;2024-02-26T00:30:21;35.47;;;29.48;;
9292;SDS011;69930;48.232;12.384;2024-02-26T00:32:51;26.40;;;22.67;;
9292;SDS011;69930;48.232;12.384;2024-02-26T00:35:18;55.13;;;35.28;;
9292;SDS011;69930;48.232;12.384;2024-02-26T00:37:45;27.77;;;23.67;;
9292;SDS011;69930;48.232;12.384;2024-02-26T01:54:50;36.88;;;28.30;;
9292;SDS011;69930;48.232;12.384;2024-02-26T01:57:18;35.10;;;26.95;;
9292;SDS011;69930;48.232;12.384;2024-02-26T01:59:45;38.42;;;29.45;;
9292;SDS011;69930;48.232;12.384;2024-02-26T02:02:12;36.03;;;28.40;;
9292;SDS011;69930;48.232;12.384;2024-02-26T02:04:42;34.28;;;27.85;;
9292;SDS011;69930;48.232;12.384;2024-02-26T02:07:09;34.60;;;28.05;;
9292;SDS011;69930;48.232;12.384;2024-02-26T02:09:37;35.33;;;28.17;;
9292;SDS011;69930;48.232;12.384;2024-02-26T02:12:06;34.88;;;26.83;;
9292;SDS011;69930;48.232;12.384;2024-02-26T02:14:33;42.83;;;30.05;;
9292;SDS011;69930;48.232;12.384;2024-02-26T02:17:00;34.75;;;27.55;;
9292;SDS011;69930;48.232;12.384;2024-02-26T02:19:27;35.08;;;27.60;;
9292;SDS011;69930;48.232;12.384;2024-02-26T02:21:56;31.75;;;25.75;;
9292;SDS011;69930;48.232;12.384;2024-02-26T02:24:23;27.75;;;23.95;;
9292;SDS011;69930;48.232;12.384;2024-02-26T02:26:50;54.42;;;37.15;;
9292;SDS011;69930;48.232;12.384;2024-02-26T02:29:17;32.05;;;25.90;;
9292;SDS011;69930;48.232;12.384;2024-02-26T02:31:44;29.17;;;23.88;;
9292;SDS011;69930;48.232;12.384;2024-02-26T02:34:11;26.10;;;22.65;;
9292;SDS011;69930;48.232;12.384;2024-02-26T02:36:48;30.13;;;25.40;;
9292;SDS011;69930;48.232;12.384;2024-02-26T02:39:17;29.33;;;23.45;;
9292;SDS011;69930;48.232;12.384;2024-02-26T02:41:44;26.67;;;23.63;;
9292;SDS011;69930;48.232;12.384;2024-02-26T02:44:11;26.60;;;22.92;;
9292;SDS011;69930;48.232;12.384;2024-02-26T02:46:38;25.83;;;22.52;;
9292;SDS011;69930;48.232;12.384;2024-02-26T02:49:07;26.33;;;22.10;;
9292;SDS011;69930;48.232;12.384;2024-02-26T02:51:35;29.02;;;23.58;;
9292;SDS011;69930;48.232;12.384;2024-02-26T02:54:02;32.40;;;26.20;;
9292;SDS011;69930;48.232;12.384;2024-02-26T02:56:32;34.17;;;27.08;;
9292;SDS011;69930;48.232;12.384;2024-02-26T03:01:48;31.45;;;25.25;;
9292;SDS011;69930;48.232;12.384;2024-02-26T03:04:15;34.63;;;27.33;;
9292;SDS011;69930;48.232;12.384;2024-02-26T03:06:42;37.22;;;28.27;;
9292;SDS011;69930;48.232;12.384;2024-02-26T03:09:09;39.40;;;27.67;;
9292;SDS011;69930;48.232;12.384;2024-02-26T03:11:39;31.20;;;24.95;;
9292;SDS011;69930;48.232;12.384;2024-02-26T03:14:06;34.75;;;27.05;;
9292;SDS011;69930;48.232;12.384;2024-02-26T03:16:34;38.00;;;28.85;;
9292;SDS011;69930;48.232;12.384;2024-02-26T03:19:02;150.35;;;39.28;;
9292;SDS011;69930;48.232;12.384;2024-02-26T03:21:29;45.38;;;32.78;;
9292;SDS011;69930;48.232;12.384;2024-02-26T03:23:56;35.63;;;26.80;;
9292;SDS011;69930;48.232;12.384;2024-02-26T03:26:23;38.47;;;28.73;;
9292;SDS011;69930;48.232;12.384;2024-02-26T03:28:52;82.35;;;32.65;;
9292;SDS011;69930;48.232;12.384;2024-02-26T03:31:19;134.93;;;34.50;;
9292;SDS011;69930;48.232;12.384;2024-02-26T03:33:46;38.40;;;28.02;;
9292;SDS011;69930;48.232;12.384;2024-02-26T03:36:13;56.70;;;33.92;;
9292;SDS011;69930;48.232;12.384;2024-02-26T03:38:40;36.35;;;28.45;;
9292;SDS011;69930;48.232;12.384;2024-02-26T03:41:08;129.30;;;32.78;;
9292;SDS011;69930;48.232;12.384;2024-02-26T03:43:35;52.33;;;29.67;;
9292;SDS011;69930;48.232;12.384;2024-02-26T07:22:35;47.80;;;37.40;;
9292;SDS011;69930;48.232;12.384;2024-02-26T07:25:03;50.25;;;37.65;;
9292;SDS011;69930;48.232;12.384;2024-02-26T07:27:45;119.22;;;82.70;;
9292;SDS011;69930;48.232;12.384;2024-02-26T07:30:14;84.13;;;58.67;;
9292;SDS011;69930;48.232;12.384;2024-02-26T07:32:55;123.78;;;93.53;;
9292;SDS011;69930;48.232;12.384;2024-02-26T09:42:01;8.90;;;8.10;;
9292;SDS011;69930;48.232;12.384;2024-02-26T09:44:34;9.15;;;8.25;;
9292;SDS011;69930;48.232;12.384;2024-02-26T09:47:07;9.73;;;8.75;;
9292;SDS011;69930;48.232;12.384;2024-02-26T09:49:38;9.57;;;8.68;;
9292;SDS011;69930;48.232;12.384;2024-02-26T09:52:06;14.93;;;11.68;;
9292;SDS011;69930;48.232;12.384;2024-02-26T09:54:37;12.70;;;9.80;;
9292;SDS011;69930;48.232;12.384;2024-02-26T09:57:09;9.90;;;8.90;;
9292;SDS011;69930;48.232;12.384;2024-02-26T09:59:41;9.75;;;8.75;;
9292;SDS011;69930;48.232;12.384;2024-02-26T10:02:11;9.52;;;8.63;;
9292;SDS011;69930;48.232;12.384;2024-02-26T10:04:39;9.40;;;8.45;;
9292;SDS011;69930;48.232;12.384;2024-02-26T10:07:09;9.63;;;8.65;;
9292;SDS011;69930;48.232;12.384;2024-02-26T10:09:37;9.55;;;7.72;;
9292;SDS011;69930;48.232;12.384;2024-02-26T10:12:08;13.65;;;8.60;;
9292;SDS011;69930;48.232;12.384;2024-02-26T10:14:36;9.23;;;8.32;;
9292;SDS011;69930;48.232;12.384;2024-02-26T10:17:04;11.30;;;10.30;;
9292;SDS011;69930;48.232;12.384;2024-02-26T10:19:34;9.68;;;8.63;;
9292;SDS011;69930;48.232;12.384;2024-02-26T10:22:02;9.55;;;8.45;;
9292;SDS011;69930;48.232;12.384;2024-02-26T10:24:30;8.35;;;7.65;;
9292;SDS011;69930;48.232;12.384;2024-02-26T10:26:59;9.70;;;8.20;;
9292;SDS011;69930;48.232;12.384;2024-02-26T10:29:31;8.32;;;7.53;;
9292;SDS011;69930;48.232;12.384;2024-02-26T10:31:59;9.20;;;7.70;;
9292;SDS011;69930;48.232;12.384;2024-02-26T10:34:29;8.70;;;7.70;;
9292;SDS011;69930;48.232;12.384;2024-02-26T10:36:57;8.80;;;7.70;;
9292;SDS011;69930;48.232;12.384;2024-02-26T10:39:24;8.38;;;7.47;;
9292;SDS011;69930;48.232;12.384;2024-02-26T10:41:51;7.60;;;6.90;;
9292;SDS011;69930;48.232;12.384;2024-02-26T10:44:18;7.85;;;7.10;;
9292;SDS011;69930;48.232;12.384;2024-02-26T13:12:09;3.65;;;2.35;;
9292;SDS011;69930;48.232;12.384;2024-02-26T13:14:38;3.15;;;2.67;;
9292;SDS011;69930;48.232;12.384;2024-02-26T13:17:05;3.30;;;2.50;;
9292;SDS011;69930;48.232;12.384;2024-02-26T13:19:33;2.60;;;2.40;;
9292;SDS011;69930;48.232;12.384;2024-02-26T13:22:14;2.90;;;2.60;;
9292;SDS011;69930;48.232;12.384;2024-02-26T13:24:43;2.72;;;2.50;;
9292;SDS011;69930;48.232;12.384;2024-02-26T13:27:23;3.88;;;2.60;;
9292;SDS011;69930;48.232;12.384;2024-02-26T13:30:01;2.70;;;2.50;;
9292;SDS011;69930;48.232;12.384;2024-02-26T13:32:35;2.50;;;2.30;;
9292;SDS011;69930;48.232;12.384;2024-02-26T13:35:04;3.03;;;2.25;;
9292;SDS011;69930;48.232;12.384;2024-02-26T13:37:40;3.63;;;2.70;;
9292;SDS011;69930;48.232;12.384;2024-02-26T13:40:10;3.58;;;2.50;;
9292;SDS011;69930;48.232;12.384;2024-02-26T13:42:40;3.95;;;2.72;;
9292;SDS011;69930;48.232;12.384;2024-02-26T13:45:07;3.95;;;2.85;;
9292;SDS011;69930;48.232;12.384;2024-02-26T13:47:35;3.97;;;2.47;;
9292;SDS011;69930;48.232;12.384;2024-02-26T13:50:03;2.88;;;2.33;;
9292;SDS011;69930;48.232;12.384;2024-02-26T13:52:31;3.88;;;2.33;;
9292;SDS011;69930;48.232;12.384;2024-02-26T13:54:59;3.17;;;2.20;;
9292;SDS011;69930;48.232;12.384;2024-02-26T13:57:27;2.38;;;2.10;;
9292;SDS011;69930;48.232;12.384;2024-02-26T13:59:56;2.70;;;2.25;;
9292;SDS011;69930;48.232;12.384;2024-02-26T14:02:23;2.22;;;2.03;;
9292;SDS011;69930;48.232;12.384;2024-02-26T14:04:51;2.63;;;1.95;;
9292;SDS011;69930;48.232;12.384;2024-02-26T14:07:18;1.85;;;1.75;;
9292;SDS011;69930;48.232;12.384;2024-02-26T14:09:45;4.43;;;2.15;;
9292;SDS011;69930;48.232;12.384;2024-02-26T14:12:12;2.13;;;1.92;;
9292;SDS011;69930;48.232;12.384;2024-02-26T14:14:39;2.40;;;2.20;;
9292;SDS011;69930;48.232;12.384;2024-02-26T15:39:16;20.27;;;13.77;;
9292;SDS011;69930;48.232;12.384;2024-02-26T15:41:43;14.07;;;11.75;;
9292;SDS011;69930;48.232;12.384;2024-02-26T15:44:10;29.13;;;22.10;;
9292;SDS011;69930;48.232;12.384;2024-02-26T15:46:41;6.05;;;5.45;;
9292;SDS011;69930;48.232;12.384;2024-02-26T15:49:09;6.32;;;3.40;;
9292;SDS011;69930;48.232;12.384;2024-02-26T15:51:37;5.05;;;3.30;;
9292;SDS011;69930;48.232;12.384;2024-02-26T15:54:08;3.45;;;3.15;;
9292;SDS011;69930;48.232;12.384;2024-02-26T15:56:37;3.78;;;2.85;;
9292;SDS011;69930;48.232;12.384;2024-02-26T15:59:05;6.22;;;3.70;;
9292;SDS011;69930;48.232;12.384;2024-02-26T16:01:32;9.40;;;4.70;;
9292;SDS011;69930;48.232;12.384;2024-02-26T16:04:13;5.57;;;4.70;;
9292;SDS011;69930;48.232;12.384;2024-02-26T16:06:42;5.97;;;4.20;;
9292;SDS011;69930;48.232;12.384;2024-02-26T16:09:12;7.45;;;4.10;;
9292;SDS011;69930;48.232;12.384;2024-02-26T16:11:42;4.18;;;3.20;;
9292;SDS011;69930;48.232;12.384;2024-02-26T16:14:25;4.78;;;3.20;;
9292;SDS011;69930;48.232;12.384;2024-02-26T16:17:15;5.70;;;2.78;;
9292;SDS011;69930;48.232;12.384;2024-02-26T16:19:56;6.97;;;3.10;;
9292;SDS011;69930;48.232;12.384;2024-02-26T16:22:25;3.42;;;2.90;;
9292;SDS011;69930;48.232;12.384;2024-02-26T16:24:57;4.15;;;2.75;;
9292;SDS011;69930;48.232;12.384;2024-02-26T16:27:30;2.60;;;2.40;;
9292;SDS011;69930;48.232;12.384;2024-02-26T16:30:01;2.60;;;2.40;;
9292;SDS011;69930;48.232;12.384;2024-02-26T16:32:34;3.55;;;3.00;;
9292;SDS011;69930;48.232;12.384;2024-02-26T16:35:02;3.50;;;3.20;;
9292;SDS011;69930;48.232;12.384;2024-02-26T16:37:44;6.03;;;3.72;;
9292;SDS011;69930;48.232;12.384;2024-02-26T16:40:12;3.50;;;2.92;;
9292;SDS011;69930;48.232;12.384;2024-02-26T16:46:13;6.53;;;3.10;;
9292;SDS011;69930;48.232;12.384;2024-02-26T16:48:45;3.47;;;3.17;;
9292;SDS011;69930;48.232;12.384;2024-02-26T16:51:16;2.90;;;2.60;;
9292;SDS011;69930;48.232;12.384;2024-02-26T16:53:43;2.88;;;2.63;;
9292;SDS011;69930;48.232;12.384;2024-02-26T18:22:29;13.38;;;10.82;;
9292;SDS011;69930;48.232;12.384;2024-02-26T18:25:10;6.45;;;4.30;;
9292;SDS011;69930;48.232;12.384;2024-02-26T18:27:37;6.07;;;5.18;;
9292;SDS011;69930;48.232;12.384;2024-02-26T18:30:06;10.73;;;9.52;;
9292;SDS011;69930;48.232;12.384;2024-02-26T18:32:34;15.98;;;10.93;;
9292;SDS011;69930;48.232;12.384;2024-02-26T18:35:16;61.72;;;38.17;;
9292;SDS011;69930;48.232;12.384;2024-02-26T18:37:45;60.25;;;37.20;;
9292;SDS011;69930;48.232;12.384;2024-02-26T18:40:12;81.97;;;50.63;;
9292;SDS011;69930;48.232;12.384;2024-02-26T18:42:48;51.20;;;33.28;;
9292;SDS011;69930;48.232;12.384;2024-02-26T18:45:42;39.10;;;24.65;;
9292;SDS011;69930;48.232;12.384;2024-02-26T18:48:47;10.65;;;8.43;;
9292;SDS011;69930;48.232;12.384;2024-02-26T18:51:15;9.75;;;7.82;;
9292;SDS011;69930;48.232;12.384;2024-02-26T18:53:48;7.50;;;4.47;;
9292;SDS011;69930;48.232;12.384;2024-02-26T18:56:22;6.82;;;6.13;;
9292;SDS011;69930;48.232;12.384;2024-02-26T18:58:51;6.50;;;5.78;;
9292;SDS011;69930;48.232;12.384;2024-02-26T19:01:19;8.23;;;5.38;;
9292;SDS011;69930;48.232;12.384;2024-02-26T19:03:46;7.65;;;4.90;;
9292;SDS011;69930;48.232;12.384;2024-02-26T19:06:14;9.23;;;7.10;;
9292;SDS011;69930;48.232;12.384;2024-02-26T19:08:42;6.32;;;5.68;;
9292;SDS011;69930;48.232;12.384;2024-02-26T19:11:10;7.55;;;4.10;;
9292;SDS011;69930;48.232;12.384;2024-02-26T19:13:38;7.25;;;4.40;;
9292;SDS011;69930;48.232;12.384;2024-02-26T19:16:06;5.47;;;3.90;;
9292;SDS011;69930;48.232;12.384;2024-02-26T19:18:35;6.63;;;3.45;;
9292;SDS011;69930;48.232;12.384;2024-02-26T19:21:02;5.35;;;3.47;;
9292;SDS011;69930;48.232;12.384;2024-02-26T19:23:29;3.95;;;3.55;;
9292;SDS011;69930;48.232;12.384;2024-02-26T19:25:59;4.25;;;3.65;;
9292;SDS011;69930;48.232;12.384;2024-02-26T19:28:27;4.85;;;3.60;;
9292;SDS011;69930;48.232;12.384;2024-02-26T19:30:56;5.05;;;3.70;;
9292;SDS011;69930;48.232;12.384;2024-02-26T19:33:23;3.78;;;3.10;;
9292;SDS011;69930;48.232;12.384;2024-02-26T19:35:50;3.85;;;3.42;;
9292;SDS011;69930;48.232;12.384;2024-02-26T19:38:18;5.18;;;3.40;;
9292;SDS011;69930;48.232;12.384;2024-02-26T19:40:46;4.55;;;3.33;;
9292;SDS011;69930;48.232;12.384;2024-02-26T19:43:13;5.25;;;3.67;;
9292;SDS011;69930;48.232;12.384;2024-02-26T19:45:42;5.10;;;3.80;;
9292;SDS011;69930;48.232;12.384;2024-02-26T19:48:10;4.53;;;3.80;;
9292;SDS011;69930;48.232;12.384;2024-02-26T19:50:37;3.85;;;3.40;;
9292;SDS011;69930;48.232;12.384;2024-02-26T19:53:06;3.72;;;3.40;;
9292;SDS011;69930;48.232;12.384;2024-02-26T19:55:33;4.53;;;4.07;;
9292;SDS011;69930;48.232;12.384;2024-02-26T19:58:00;6.40;;;3.83;;
9292;SDS011;69930;48.232;12.384;2024-02-26T20:00:29;4.28;;;3.88;;
9292;SDS011;69930;48.232;12.384;2024-02-26T20:02:58;6.35;;;4.20;;
9292;SDS011;69930;48.232;12.384;2024-02-26T20:05:25;4.75;;;4.20;;
9292;SDS011;69930;48.232;12.384;2024-02-26T20:07:52;5.22;;;4.38;;
9292;SDS011;69930;48.232;12.384;2024-02-26T20:10:19;4.30;;;3.90;;
9292;SDS011;69930;48.232;12.384;2024-02-26T20:12:48;6.25;;;4.43;;
9292;SDS011;69930;48.232;12.384;2024-02-26T20:15:17;5.05;;;4.57;;
9292;SDS011;69930;48.232;12.384;2024-02-26T20:17:46;4.68;;;4.20;;
9292;SDS011;69930;48.232;12.384;2024-02-26T20:20:15;5.65;;;4.55;;
9292;SDS011;69930;48.232;12.384;2024-02-26T20:22:43;4.93;;;3.70;;
9292;SDS011;69930;48.232;12.384;2024-02-26T20:25:09;3.75;;;3.30;;
9292;SDS011;69930;48.232;12.384;2024-02-26T20:27:36;4.15;;;3.65;;
9292;SDS011;69930;48.232;12.384;2024-02-26T20:30:04;4.40;;;3.67;;
9292;SDS011;69930;48.232;12.384;2024-02-26T20:32:32;5.47;;;3.67;;
9292;SDS011;69930;48.232;12.384;2024-02-26T20:35:00;4.38;;;3.20;;
9292;SDS011;69930;48.232;12.384;2024-02-26T20:37:29;4.97;;;3.40;;
9292;SDS011;69930;48.232;12.384;2024-02-26T20:42:37;3.60;;;3.30;;
9292;SDS011;69930;48.232;12.384;2024-02-26T20:45:21;3.67;;;3.38;;
9292;SDS011;69930;48.232;12.384;2024-02-26T20:48:02;3.30;;;3.03;;
9292;SDS011;69930;48.232;12.384;2024-02-26T21:57:01;4.05;;;3.40;;
9292;SDS011;69930;48.232;12.384;2024-02-26T21:59:28;9.35;;;3.38;;
9292;SDS011;69930;48.232;12.384;2024-02-26T22:01:55;4.15;;;3.40;;
9292;SDS011;69930;48.232;12.384;2024-02-26T22:04:23;4.50;;;3.45;;
9292;SDS011;69930;48.232;12.384;2024-02-26T22:06:51;4.13;;;3.80;;
9292;SDS011;69930;48.232;12.384;2024-02-26T22:09:18;4.28;;;3.90;;
9292;SDS011;69930;48.232;12.384;2024-02-26T22:11:48;4.97;;;3.63;;
9292;SDS011;69930;48.232;12.384;2024-02-26T22:14:16;4.20;;;3.80;;
9292;SDS011;69930;48.232;12.384;2024-02-26T22:16:43;4.38;;;3.97;;
9292;SDS011;69930;48.232;12.384;2024-02-26T22:19:10;4.55;;;3.78;;
9292;SDS011;69930;48.232;12.384;2024-02-26T22:21:39;5.88;;;3.90;;
9292;SDS011;69930;48.232;12.384;2024-02-26T22:24:07;3.40;;;3.10;;
9292;SDS011;69930;48.232;12.384;2024-02-26T22:26:35;4.00;;;3.60;;
9292;SDS011;69930;48.232;12.384;2024-02-26T22:29:02;4.95;;;3.20;;
9292;SDS011;69930;48.232;12.384;2024-02-26T22:31:31;4.15;;;3.50;;
9292;SDS011;69930;48.232;12.384;2024-02-26T22:33:58;4.30;;;3.90;;
9292;SDS011;69930;48.232;12.384;2024-02-26T22:36:25;4.97;;;3.88;;
9292;SDS011;69930;48.232;12.384;2024-02-26T22:38:52;5.57;;;4.18;;
9292;SDS011;69930;48.232;12.384;2024-02-26T22:41:21;5.13;;;4.30;;
9292;SDS011;69930;48.232;12.384;2024-02-26T22:43:48;4.22;;;3.75;;
9292;SDS011;69930;48.232;12.384;2024-02-26T22:46:15;7.15;;;4.18;;
9292;SDS011;69930;48.232;12.384;2024-02-26T22:48:44;5.22;;;4.70;;
9292;SDS011;69930;48.232;12.384;2024-02-26T22:51:11;5.07;;;4.57;;
9292;SDS011;69930;48.232;12.384;2024-02-26T22:53:38;4.80;;;4.40;;
9292;SDS011;69930;48.232;12.384;2024-02-26T22:56:06;5.45;;;4.60;;
9292;SDS011;69930;48.232;12.384;2024-02-26T22:58:33;5.43;;;4.93;;
9292;SDS011;69930;48.232;12.384;2024-02-26T23:31:52;8.73;;;5.38;;
